sensor_id;sensor_type;location;lat;lon;timestamp;P1;durP1;ratioP1;P2;durP2;ratioP2
77359;SDS011;66426;51.454;7.266;2023-03-14T00:01:07;3.65;;;1.40;;
77359;SDS011;66426;51.454;7.266;2023-03-14T00:02:09;5.32;;;1.60;;
77359;SDS011;66426;51.454;7.266;2023-03-14T00:03:10;4.85;;;1.60;;
77359;SDS011;66426;51.454;7.266;2023-03-14T00:04:10;3.45;;;1.35;;
77359;SDS011;66426;51.454;7.266;2023-03-14T00:05:11;5.78;;;1.70;;
77359;SDS011;66426;51.454;7.266;2023-03-14T00:06:12;6.70;;;1.70;;
77359;SDS011;66426;51.454;7.266;2023-03-14T00:07:13;5.55;;;1.27;;
77359;SDS011;66426;51.454;7.266;2023-03-14T00:08:14;4.70;;;1.42;;
77359;SDS011;66426;51.454;7.266;2023-03-14T00:09:15;3.03;;;1.42;;
77359;SDS011;66426;51.454;7.266;2023-03-14T00:10:15;7.03;;;1.60;;
77359;SDS011;66426;51.454;7.266;2023-03-14T00:11:17;4.55;;;1.92;;
77359;SDS011;66426;51.454;7.266;2023-03-14T00:12:18;5.28;;;1.75;;
77359;SDS011;66426;51.454;7.266;2023-03-14T00:13:18;3.80;;;1.40;;
77359;SDS011;66426;51.454;7.266;2023-03-14T00:14:19;5.50;;;1.30;;
77359;SDS011;66426;51.454;7.266;2023-03-14T00:15:20;2.92;;;1.30;;
77359;SDS011;66426;51.454;7.266;2023-03-14T00:16:21;2.47;;;1.30;;
77359;SDS011;66426;51.454;7.266;2023-03-14T00:17:23;3.83;;;1.48;;
77359;SDS011;66426;51.454;7.266;2023-03-14T00:18:23;5.97;;;1.60;;
77359;SDS011;66426;51.454;7.266;2023-03-14T00:19:24;5.20;;;1.40;;
77359;SDS011;66426;51.454;7.266;2023-03-14T00:20:25;2.60;;;1.40;;
77359;SDS011;66426;51.454;7.266;2023-03-14T00:21:26;3.55;;;1.38;;
77359;SDS011;66426;51.454;7.266;2023-03-14T00:22:26;6.65;;;1.58;;
77359;SDS011;66426;51.454;7.266;2023-03-14T00:23:27;3.72;;;1.58;;
77359;SDS011;66426;51.454;7.266;2023-03-14T00:24:28;6.22;;;1.60;;
77359;SDS011;66426;51.454;7.266;2023-03-14T00:25:29;7.53;;;1.52;;
77359;SDS011;66426;51.454;7.266;2023-03-14T00:26:30;3.70;;;1.50;;
77359;SDS011;66426;51.454;7.266;2023-03-14T00:27:31;11.60;;;1.85;;
77359;SDS011;66426;51.454;7.266;2023-03-14T00:28:32;4.80;;;1.50;;
77359;SDS011;66426;51.454;7.266;2023-03-14T00:29:33;6.07;;;1.45;;
77359;SDS011;66426;51.454;7.266;2023-03-14T00:30:33;4.45;;;1.20;;
77359;SDS011;66426;51.454;7.266;2023-03-14T00:31:34;4.70;;;1.40;;
77359;SDS011;66426;51.454;7.266;2023-03-14T00:32:37;4.97;;;1.50;;
77359;SDS011;66426;51.454;7.266;2023-03-14T00:33:38;4.80;;;1.50;;
77359;SDS011;66426;51.454;7.266;2023-03-14T00:34:39;5.35;;;1.77;;
77359;SDS011;66426;51.454;7.266;2023-03-14T00:35:40;4.00;;;1.20;;
77359;SDS011;66426;51.454;7.266;2023-03-14T00:36:41;4.28;;;1.70;;
77359;SDS011;66426;51.454;7.266;2023-03-14T00:37:41;3.47;;;1.35;;
77359;SDS011;66426;51.454;7.266;2023-03-14T00:38:43;5.75;;;1.77;;
77359;SDS011;66426;51.454;7.266;2023-03-14T00:39:44;5.15;;;1.80;;
77359;SDS011;66426;51.454;7.266;2023-03-14T00:40:45;4.10;;;1.08;;
77359;SDS011;66426;51.454;7.266;2023-03-14T00:41:45;6.72;;;1.58;;
77359;SDS011;66426;51.454;7.266;2023-03-14T00:42:46;5.90;;;1.45;;
77359;SDS011;66426;51.454;7.266;2023-03-14T00:43:47;4.13;;;1.58;;
77359;SDS011;66426;51.454;7.266;2023-03-14T00:44:47;4.68;;;1.40;;
77359;SDS011;66426;51.454;7.266;2023-03-14T00:45:48;4.22;;;1.30;;
77359;SDS011;66426;51.454;7.266;2023-03-14T00:46:49;4.63;;;1.15;;
77359;SDS011;66426;51.454;7.266;2023-03-14T00:47:51;4.97;;;1.55;;
77359;SDS011;66426;51.454;7.266;2023-03-14T00:48:52;5.00;;;1.10;;
77359;SDS011;66426;51.454;7.266;2023-03-14T00:49:52;4.88;;;1.35;;
77359;SDS011;66426;51.454;7.266;2023-03-14T00:50:53;3.88;;;1.40;;
77359;SDS011;66426;51.454;7.266;2023-03-14T00:51:54;6.75;;;2.28;;
77359;SDS011;66426;51.454;7.266;2023-03-14T00:52:55;6.28;;;1.58;;
77359;SDS011;66426;51.454;7.266;2023-03-14T00:53:55;5.15;;;1.60;;
77359;SDS011;66426;51.454;7.266;2023-03-14T00:54:56;9.60;;;2.97;;
77359;SDS011;66426;51.454;7.266;2023-03-14T00:55:57;4.20;;;1.40;;
77359;SDS011;66426;51.454;7.266;2023-03-14T00:56:57;4.82;;;1.30;;
77359;SDS011;66426;51.454;7.266;2023-03-14T00:57:58;6.30;;;1.65;;
77359;SDS011;66426;51.454;7.266;2023-03-14T00:58:59;5.85;;;1.30;;
77359;SDS011;66426;51.454;7.266;2023-03-14T00:59:59;5.68;;;1.70;;
77359;SDS011;66426;51.454;7.266;2023-03-14T01:01:04;5.35;;;1.63;;
77359;SDS011;66426;51.454;7.266;2023-03-14T01:02:05;4.55;;;1.30;;
77359;SDS011;66426;51.454;7.266;2023-03-14T01:03:08;3.90;;;1.33;;
77359;SDS011;66426;51.454;7.266;2023-03-14T01:04:10;4.50;;;1.45;;
77359;SDS011;66426;51.454;7.266;2023-03-14T01:05:10;7.05;;;1.70;;
77359;SDS011;66426;51.454;7.266;2023-03-14T01:06:12;7.28;;;1.85;;
77359;SDS011;66426;51.454;7.266;2023-03-14T01:07:13;3.28;;;1.50;;
77359;SDS011;66426;51.454;7.266;2023-03-14T01:08:14;5.18;;;1.73;;
77359;SDS011;66426;51.454;7.266;2023-03-14T01:09:15;4.90;;;1.65;;
77359;SDS011;66426;51.454;7.266;2023-03-14T01:10:18;8.07;;;2.00;;
77359;SDS011;66426;51.454;7.266;2023-03-14T01:11:19;1.33;;;0.75;;
77359;SDS011;66426;51.454;7.266;2023-03-14T01:12:20;1.98;;;0.90;;
77359;SDS011;66426;51.454;7.266;2023-03-14T01:13:21;3.13;;;1.02;;
77359;SDS011;66426;51.454;7.266;2023-03-14T01:14:22;2.90;;;0.80;;
77359;SDS011;66426;51.454;7.266;2023-03-14T01:15:22;3.47;;;1.25;;
77359;SDS011;66426;51.454;7.266;2023-03-14T01:16:24;4.38;;;0.98;;
77359;SDS011;66426;51.454;7.266;2023-03-14T01:17:25;2.45;;;0.95;;
77359;SDS011;66426;51.454;7.266;2023-03-14T01:18:27;3.30;;;1.23;;
77359;SDS011;66426;51.454;7.266;2023-03-14T01:19:28;0.75;;;0.65;;
77359;SDS011;66426;51.454;7.266;2023-03-14T01:20:29;2.47;;;0.80;;
77359;SDS011;66426;51.454;7.266;2023-03-14T01:21:31;2.88;;;1.00;;
77359;SDS011;66426;51.454;7.266;2023-03-14T01:22:31;2.28;;;1.00;;
77359;SDS011;66426;51.454;7.266;2023-03-14T01:23:32;1.17;;;1.13;;
77359;SDS011;66426;51.454;7.266;2023-03-14T01:24:33;1.92;;;0.80;;
77359;SDS011;66426;51.454;7.266;2023-03-14T01:25:34;0.85;;;0.70;;
77359;SDS011;66426;51.454;7.266;2023-03-14T01:26:34;2.78;;;1.30;;
77359;SDS011;66426;51.454;7.266;2023-03-14T01:27:35;2.03;;;1.20;;
77359;SDS011;66426;51.454;7.266;2023-03-14T01:28:36;3.25;;;1.20;;
77359;SDS011;66426;51.454;7.266;2023-03-14T01:29:37;3.92;;;1.23;;
77359;SDS011;66426;51.454;7.266;2023-03-14T01:30:38;3.67;;;1.20;;
77359;SDS011;66426;51.454;7.266;2023-03-14T01:31:39;2.63;;;1.05;;
77359;SDS011;66426;51.454;7.266;2023-03-14T01:32:39;3.10;;;1.10;;
77359;SDS011;66426;51.454;7.266;2023-03-14T01:33:41;2.65;;;1.05;;
77359;SDS011;66426;51.454;7.266;2023-03-14T01:34:42;3.08;;;1.40;;
77359;SDS011;66426;51.454;7.266;2023-03-14T01:35:43;3.40;;;0.98;;
77359;SDS011;66426;51.454;7.266;2023-03-14T01:36:43;1.95;;;0.80;;
77359;SDS011;66426;51.454;7.266;2023-03-14T01:37:44;2.33;;;1.05;;
77359;SDS011;66426;51.454;7.266;2023-03-14T01:38:45;2.63;;;1.20;;
77359;SDS011;66426;51.454;7.266;2023-03-14T01:39:46;2.38;;;1.05;;
77359;SDS011;66426;51.454;7.266;2023-03-14T01:40:46;3.03;;;1.38;;
77359;SDS011;66426;51.454;7.266;2023-03-14T01:41:47;3.20;;;1.05;;
77359;SDS011;66426;51.454;7.266;2023-03-14T01:42:53;2.30;;;1.08;;
77359;SDS011;66426;51.454;7.266;2023-03-14T01:43:54;1.65;;;0.70;;
77359;SDS011;66426;51.454;7.266;2023-03-14T01:44:56;3.22;;;1.10;;
77359;SDS011;66426;51.454;7.266;2023-03-14T01:46:12;3.78;;;1.25;;
77359;SDS011;66426;51.454;7.266;2023-03-14T01:47:15;2.63;;;1.00;;
77359;SDS011;66426;51.454;7.266;2023-03-14T01:48:16;2.17;;;0.85;;
77359;SDS011;66426;51.454;7.266;2023-03-14T01:49:26;5.72;;;1.23;;
77359;SDS011;66426;51.454;7.266;2023-03-14T01:50:27;3.70;;;1.08;;
77359;SDS011;66426;51.454;7.266;2023-03-14T01:51:29;5.07;;;1.30;;
77359;SDS011;66426;51.454;7.266;2023-03-14T01:52:31;2.75;;;0.98;;
77359;SDS011;66426;51.454;7.266;2023-03-14T01:53:34;6.25;;;1.20;;
77359;SDS011;66426;51.454;7.266;2023-03-14T01:54:36;7.00;;;1.48;;
77359;SDS011;66426;51.454;7.266;2023-03-14T01:55:38;4.32;;;1.75;;
77359;SDS011;66426;51.454;7.266;2023-03-14T01:56:38;2.20;;;1.00;;
77359;SDS011;66426;51.454;7.266;2023-03-14T01:57:41;3.15;;;1.20;;
77359;SDS011;66426;51.454;7.266;2023-03-14T01:58:45;2.95;;;1.40;;
77359;SDS011;66426;51.454;7.266;2023-03-14T01:59:47;3.97;;;1.00;;
77359;SDS011;66426;51.454;7.266;2023-03-14T02:00:49;2.20;;;1.10;;
77359;SDS011;66426;51.454;7.266;2023-03-14T02:01:49;4.22;;;1.48;;
77359;SDS011;66426;51.454;7.266;2023-03-14T02:02:52;3.63;;;1.40;;
77359;SDS011;66426;51.454;7.266;2023-03-14T02:03:54;3.20;;;0.93;;
77359;SDS011;66426;51.454;7.266;2023-03-14T02:04:57;3.60;;;1.00;;
77359;SDS011;66426;51.454;7.266;2023-03-14T02:05:59;3.97;;;1.20;;
77359;SDS011;66426;51.454;7.266;2023-03-14T02:07:05;5.88;;;1.45;;
77359;SDS011;66426;51.454;7.266;2023-03-14T02:08:09;2.30;;;1.20;;
77359;SDS011;66426;51.454;7.266;2023-03-14T02:09:10;5.45;;;1.20;;
77359;SDS011;66426;51.454;7.266;2023-03-14T02:10:11;4.72;;;1.10;;
77359;SDS011;66426;51.454;7.266;2023-03-14T02:11:12;4.13;;;1.30;;
77359;SDS011;66426;51.454;7.266;2023-03-14T02:12:13;3.97;;;1.00;;
77359;SDS011;66426;51.454;7.266;2023-03-14T02:13:16;3.05;;;0.93;;
77359;SDS011;66426;51.454;7.266;2023-03-14T02:14:20;4.25;;;1.02;;
77359;SDS011;66426;51.454;7.266;2023-03-14T02:15:22;2.50;;;1.00;;
77359;SDS011;66426;51.454;7.266;2023-03-14T02:16:23;3.13;;;0.90;;
77359;SDS011;66426;51.454;7.266;2023-03-14T02:17:23;3.20;;;0.90;;
77359;SDS011;66426;51.454;7.266;2023-03-14T02:18:24;3.70;;;1.38;;
77359;SDS011;66426;51.454;7.266;2023-03-14T02:19:27;4.93;;;1.40;;
77359;SDS011;66426;51.454;7.266;2023-03-14T02:20:34;4.68;;;1.40;;
77359;SDS011;66426;51.454;7.266;2023-03-14T02:21:42;3.17;;;1.10;;
77359;SDS011;66426;51.454;7.266;2023-03-14T02:22:45;2.75;;;1.08;;
77359;SDS011;66426;51.454;7.266;2023-03-14T02:23:48;5.13;;;1.02;;
77359;SDS011;66426;51.454;7.266;2023-03-14T02:24:55;2.67;;;0.85;;
77359;SDS011;66426;51.454;7.266;2023-03-14T02:25:59;2.47;;;1.15;;
77359;SDS011;66426;51.454;7.266;2023-03-14T02:27:12;3.63;;;0.85;;
77359;SDS011;66426;51.454;7.266;2023-03-14T02:28:13;3.30;;;1.00;;
77359;SDS011;66426;51.454;7.266;2023-03-14T02:29:15;6.20;;;1.23;;
77359;SDS011;66426;51.454;7.266;2023-03-14T02:30:16;7.57;;;1.30;;
77359;SDS011;66426;51.454;7.266;2023-03-14T02:31:17;2.13;;;1.10;;
77359;SDS011;66426;51.454;7.266;2023-03-14T02:32:18;2.50;;;1.30;;
77359;SDS011;66426;51.454;7.266;2023-03-14T02:33:20;1.65;;;0.65;;
77359;SDS011;66426;51.454;7.266;2023-03-14T02:34:21;4.47;;;1.30;;
77359;SDS011;66426;51.454;7.266;2023-03-14T02:35:22;3.13;;;1.05;;
77359;SDS011;66426;51.454;7.266;2023-03-14T02:36:24;9.07;;;1.77;;
77359;SDS011;66426;51.454;7.266;2023-03-14T02:37:26;7.07;;;1.05;;
77359;SDS011;66426;51.454;7.266;2023-03-14T02:38:29;4.53;;;1.13;;
77359;SDS011;66426;51.454;7.266;2023-03-14T02:39:33;4.75;;;1.30;;
77359;SDS011;66426;51.454;7.266;2023-03-14T02:40:35;3.60;;;1.17;;
77359;SDS011;66426;51.454;7.266;2023-03-14T02:41:36;7.18;;;1.30;;
77359;SDS011;66426;51.454;7.266;2023-03-14T02:42:38;4.22;;;1.35;;
77359;SDS011;66426;51.454;7.266;2023-03-14T02:43:39;3.45;;;1.10;;
77359;SDS011;66426;51.454;7.266;2023-03-14T02:44:47;4.60;;;1.40;;
77359;SDS011;66426;51.454;7.266;2023-03-14T02:45:49;4.68;;;1.23;;
77359;SDS011;66426;51.454;7.266;2023-03-14T02:46:50;8.35;;;1.30;;
77359;SDS011;66426;51.454;7.266;2023-03-14T02:47:52;8.45;;;1.85;;
77359;SDS011;66426;51.454;7.266;2023-03-14T02:48:55;3.80;;;1.23;;
77359;SDS011;66426;51.454;7.266;2023-03-14T02:49:59;3.72;;;1.58;;
77359;SDS011;66426;51.454;7.266;2023-03-14T02:51:02;4.60;;;1.40;;
77359;SDS011;66426;51.454;7.266;2023-03-14T02:52:03;8.38;;;1.27;;
77359;SDS011;66426;51.454;7.266;2023-03-14T02:53:04;5.22;;;1.20;;
77359;SDS011;66426;51.454;7.266;2023-03-14T02:54:04;7.35;;;1.42;;
77359;SDS011;66426;51.454;7.266;2023-03-14T02:55:05;8.38;;;1.38;;
77359;SDS011;66426;51.454;7.266;2023-03-14T02:56:07;3.60;;;0.85;;
77359;SDS011;66426;51.454;7.266;2023-03-14T02:57:08;4.82;;;1.05;;
77359;SDS011;66426;51.454;7.266;2023-03-14T02:58:10;5.43;;;1.23;;
77359;SDS011;66426;51.454;7.266;2023-03-14T02:59:10;5.22;;;1.35;;
77359;SDS011;66426;51.454;7.266;2023-03-14T03:00:11;2.85;;;1.13;;
77359;SDS011;66426;51.454;7.266;2023-03-14T03:01:12;4.55;;;1.38;;
77359;SDS011;66426;51.454;7.266;2023-03-14T03:02:13;6.97;;;1.85;;
77359;SDS011;66426;51.454;7.266;2023-03-14T03:03:13;5.78;;;1.70;;
77359;SDS011;66426;51.454;7.266;2023-03-14T03:04:14;6.22;;;1.15;;
77359;SDS011;66426;51.454;7.266;2023-03-14T03:05:15;3.67;;;1.17;;
77359;SDS011;66426;51.454;7.266;2023-03-14T03:06:16;7.38;;;1.50;;
77359;SDS011;66426;51.454;7.266;2023-03-14T03:07:17;6.97;;;1.63;;
77359;SDS011;66426;51.454;7.266;2023-03-14T03:08:18;10.07;;;1.70;;
77359;SDS011;66426;51.454;7.266;2023-03-14T03:09:19;3.85;;;1.23;;
77359;SDS011;66426;51.454;7.266;2023-03-14T03:10:20;4.75;;;1.20;;
77359;SDS011;66426;51.454;7.266;2023-03-14T03:11:20;4.68;;;1.50;;
77359;SDS011;66426;51.454;7.266;2023-03-14T03:12:21;4.10;;;1.38;;
77359;SDS011;66426;51.454;7.266;2023-03-14T03:13:23;2.53;;;1.00;;
77359;SDS011;66426;51.454;7.266;2023-03-14T03:14:24;5.63;;;1.42;;
77359;SDS011;66426;51.454;7.266;2023-03-14T03:15:25;5.18;;;1.50;;
77359;SDS011;66426;51.454;7.266;2023-03-14T03:16:26;3.78;;;1.33;;
77359;SDS011;66426;51.454;7.266;2023-03-14T03:17:26;1.15;;;0.80;;
77359;SDS011;66426;51.454;7.266;2023-03-14T03:18:27;3.10;;;1.08;;
77359;SDS011;66426;51.454;7.266;2023-03-14T03:19:28;3.10;;;0.95;;
77359;SDS011;66426;51.454;7.266;2023-03-14T03:20:28;3.33;;;1.20;;
77359;SDS011;66426;51.454;7.266;2023-03-14T03:21:29;2.63;;;1.10;;
77359;SDS011;66426;51.454;7.266;2023-03-14T03:22:30;5.10;;;1.30;;
77359;SDS011;66426;51.454;7.266;2023-03-14T03:23:30;2.15;;;1.20;;
77359;SDS011;66426;51.454;7.266;2023-03-14T03:24:31;3.42;;;1.10;;
77359;SDS011;66426;51.454;7.266;2023-03-14T03:25:32;4.70;;;1.58;;
77359;SDS011;66426;51.454;7.266;2023-03-14T03:26:33;6.43;;;1.90;;
77359;SDS011;66426;51.454;7.266;2023-03-14T03:27:34;3.35;;;1.30;;
77359;SDS011;66426;51.454;7.266;2023-03-14T03:28:36;4.68;;;1.27;;
77359;SDS011;66426;51.454;7.266;2023-03-14T03:29:37;5.10;;;1.00;;
77359;SDS011;66426;51.454;7.266;2023-03-14T03:30:38;3.90;;;1.30;;
77359;SDS011;66426;51.454;7.266;2023-03-14T03:31:39;3.65;;;1.30;;
77359;SDS011;66426;51.454;7.266;2023-03-14T03:32:39;8.02;;;1.40;;
77359;SDS011;66426;51.454;7.266;2023-03-14T03:33:40;5.78;;;1.30;;
77359;SDS011;66426;51.454;7.266;2023-03-14T03:34:41;2.45;;;1.33;;
77359;SDS011;66426;51.454;7.266;2023-03-14T03:35:42;4.13;;;1.35;;
77359;SDS011;66426;51.454;7.266;2023-03-14T03:36:43;3.47;;;1.38;;
77359;SDS011;66426;51.454;7.266;2023-03-14T03:37:44;5.60;;;1.38;;
77359;SDS011;66426;51.454;7.266;2023-03-14T03:38:45;4.35;;;1.20;;
77359;SDS011;66426;51.454;7.266;2023-03-14T03:39:46;6.18;;;1.30;;
77359;SDS011;66426;51.454;7.266;2023-03-14T03:40:46;2.55;;;0.95;;
77359;SDS011;66426;51.454;7.266;2023-03-14T03:41:47;6.10;;;1.55;;
77359;SDS011;66426;51.454;7.266;2023-03-14T03:42:48;5.45;;;1.10;;
77359;SDS011;66426;51.454;7.266;2023-03-14T03:43:50;4.45;;;1.30;;
77359;SDS011;66426;51.454;7.266;2023-03-14T03:44:51;8.95;;;2.17;;
77359;SDS011;66426;51.454;7.266;2023-03-14T03:45:51;4.07;;;1.25;;
77359;SDS011;66426;51.454;7.266;2023-03-14T03:46:52;4.53;;;1.38;;
77359;SDS011;66426;51.454;7.266;2023-03-14T03:47:53;3.17;;;1.08;;
77359;SDS011;66426;51.454;7.266;2023-03-14T03:48:54;3.63;;;1.38;;
77359;SDS011;66426;51.454;7.266;2023-03-14T03:49:55;4.75;;;1.73;;
77359;SDS011;66426;51.454;7.266;2023-03-14T03:50:55;6.75;;;1.77;;
77359;SDS011;66426;51.454;7.266;2023-03-14T03:51:56;5.75;;;1.40;;
77359;SDS011;66426;51.454;7.266;2023-03-14T03:52:57;5.97;;;1.50;;
77359;SDS011;66426;51.454;7.266;2023-03-14T03:53:57;4.35;;;1.23;;
77359;SDS011;66426;51.454;7.266;2023-03-14T03:54:58;4.88;;;1.23;;
77359;SDS011;66426;51.454;7.266;2023-03-14T03:55:59;2.90;;;1.38;;
77359;SDS011;66426;51.454;7.266;2023-03-14T03:57:00;6.00;;;1.30;;
77359;SDS011;66426;51.454;7.266;2023-03-14T03:58:00;6.20;;;1.70;;
77359;SDS011;66426;51.454;7.266;2023-03-14T03:59:02;2.65;;;1.40;;
77359;SDS011;66426;51.454;7.266;2023-03-14T04:00:03;4.38;;;1.13;;
77359;SDS011;66426;51.454;7.266;2023-03-14T04:01:06;5.32;;;1.00;;
77359;SDS011;66426;51.454;7.266;2023-03-14T04:02:09;3.85;;;1.13;;
77359;SDS011;66426;51.454;7.266;2023-03-14T04:03:10;3.55;;;1.80;;
77359;SDS011;66426;51.454;7.266;2023-03-14T04:04:11;7.20;;;2.00;;
77359;SDS011;66426;51.454;7.266;2023-03-14T04:05:12;4.55;;;1.70;;
77359;SDS011;66426;51.454;7.266;2023-03-14T04:06:13;1.77;;;1.23;;
77359;SDS011;66426;51.454;7.266;2023-03-14T04:07:13;3.25;;;0.85;;
77359;SDS011;66426;51.454;7.266;2023-03-14T04:08:15;4.80;;;1.33;;
77359;SDS011;66426;51.454;7.266;2023-03-14T04:09:15;3.92;;;1.00;;
77359;SDS011;66426;51.454;7.266;2023-03-14T04:10:16;6.68;;;1.98;;
77359;SDS011;66426;51.454;7.266;2023-03-14T04:11:17;3.08;;;1.10;;
77359;SDS011;66426;51.454;7.266;2023-03-14T04:12:18;3.83;;;1.17;;
77359;SDS011;66426;51.454;7.266;2023-03-14T04:13:18;5.22;;;1.45;;
77359;SDS011;66426;51.454;7.266;2023-03-14T04:14:20;10.00;;;1.20;;
77359;SDS011;66426;51.454;7.266;2023-03-14T04:15:21;3.63;;;1.67;;
77359;SDS011;66426;51.454;7.266;2023-03-14T04:16:22;4.97;;;1.42;;
77359;SDS011;66426;51.454;7.266;2023-03-14T04:17:23;4.60;;;1.35;;
77359;SDS011;66426;51.454;7.266;2023-03-14T04:18:24;7.53;;;1.58;;
77359;SDS011;66426;51.454;7.266;2023-03-14T04:19:25;1.63;;;0.95;;
77359;SDS011;66426;51.454;7.266;2023-03-14T04:20:26;4.85;;;1.25;;
77359;SDS011;66426;51.454;7.266;2023-03-14T04:21:26;2.97;;;0.90;;
77359;SDS011;66426;51.454;7.266;2023-03-14T04:22:27;4.55;;;1.83;;
77359;SDS011;66426;51.454;7.266;2023-03-14T04:23:28;3.03;;;1.20;;
77359;SDS011;66426;51.454;7.266;2023-03-14T04:24:29;1.92;;;0.93;;
77359;SDS011;66426;51.454;7.266;2023-03-14T04:25:29;3.05;;;0.90;;
77359;SDS011;66426;51.454;7.266;2023-03-14T04:26:30;4.35;;;1.40;;
77359;SDS011;66426;51.454;7.266;2023-03-14T04:27:31;1.80;;;0.85;;
77359;SDS011;66426;51.454;7.266;2023-03-14T04:28:32;5.20;;;0.90;;
77359;SDS011;66426;51.454;7.266;2023-03-14T04:29:34;2.25;;;0.90;;
77359;SDS011;66426;51.454;7.266;2023-03-14T04:30:34;5.00;;;1.02;;
77359;SDS011;66426;51.454;7.266;2023-03-14T04:31:35;0.98;;;0.45;;
77359;SDS011;66426;51.454;7.266;2023-03-14T04:32:36;0.73;;;0.57;;
77359;SDS011;66426;51.454;7.266;2023-03-14T04:33:39;1.95;;;0.75;;
77359;SDS011;66426;51.454;7.266;2023-03-14T04:34:39;0.65;;;0.50;;
77359;SDS011;66426;51.454;7.266;2023-03-14T04:35:41;2.38;;;0.52;;
77359;SDS011;66426;51.454;7.266;2023-03-14T04:36:42;2.10;;;0.73;;
77359;SDS011;66426;51.454;7.266;2023-03-14T04:37:42;0.85;;;0.77;;
77359;SDS011;66426;51.454;7.266;2023-03-14T04:38:43;2.15;;;1.00;;
77359;SDS011;66426;51.454;7.266;2023-03-14T04:39:44;0.85;;;0.38;;
77359;SDS011;66426;51.454;7.266;2023-03-14T04:40:45;0.68;;;0.68;;
77359;SDS011;66426;51.454;7.266;2023-03-14T04:41:45;1.48;;;0.68;;
77359;SDS011;66426;51.454;7.266;2023-03-14T04:42:46;1.38;;;0.90;;
77359;SDS011;66426;51.454;7.266;2023-03-14T04:43:47;2.60;;;0.90;;
77359;SDS011;66426;51.454;7.266;2023-03-14T04:44:49;2.15;;;0.75;;
77359;SDS011;66426;51.454;7.266;2023-03-14T04:45:50;2.25;;;0.70;;
77359;SDS011;66426;51.454;7.266;2023-03-14T04:46:51;4.93;;;0.93;;
77359;SDS011;66426;51.454;7.266;2023-03-14T04:47:51;4.20;;;1.05;;
77359;SDS011;66426;51.454;7.266;2023-03-14T04:48:52;2.40;;;1.10;;
77359;SDS011;66426;51.454;7.266;2023-03-14T04:49:53;1.90;;;0.82;;
77359;SDS011;66426;51.454;7.266;2023-03-14T04:50:54;5.07;;;1.08;;
77359;SDS011;66426;51.454;7.266;2023-03-14T04:51:54;3.60;;;0.60;;
77359;SDS011;66426;51.454;7.266;2023-03-14T04:52:55;1.17;;;0.73;;
77359;SDS011;66426;51.454;7.266;2023-03-14T04:53:56;1.92;;;0.90;;
77359;SDS011;66426;51.454;7.266;2023-03-14T04:54:57;3.05;;;1.02;;
77359;SDS011;66426;51.454;7.266;2023-03-14T04:55:57;4.30;;;1.00;;
77359;SDS011;66426;51.454;7.266;2023-03-14T04:56:58;2.13;;;0.80;;
77359;SDS011;66426;51.454;7.266;2023-03-14T04:57:59;2.95;;;1.00;;
77359;SDS011;66426;51.454;7.266;2023-03-14T04:59:00;2.30;;;0.88;;
77359;SDS011;66426;51.454;7.266;2023-03-14T05:00:02;4.90;;;1.52;;
77359;SDS011;66426;51.454;7.266;2023-03-14T05:01:06;1.70;;;1.00;;
77359;SDS011;66426;51.454;7.266;2023-03-14T05:02:07;1.20;;;1.02;;
77359;SDS011;66426;51.454;7.266;2023-03-14T05:03:08;5.05;;;1.33;;
77359;SDS011;66426;51.454;7.266;2023-03-14T05:04:08;3.80;;;1.02;;
77359;SDS011;66426;51.454;7.266;2023-03-14T05:05:09;2.55;;;0.75;;
77359;SDS011;66426;51.454;7.266;2023-03-14T05:06:10;1.55;;;0.70;;
77359;SDS011;66426;51.454;7.266;2023-03-14T05:07:11;3.42;;;0.70;;
77359;SDS011;66426;51.454;7.266;2023-03-14T05:08:11;1.75;;;0.50;;
77359;SDS011;66426;51.454;7.266;2023-03-14T05:09:12;0.75;;;0.17;;
77359;SDS011;66426;51.454;7.266;2023-03-14T05:10:13;0.40;;;0.20;;
77359;SDS011;66426;51.454;7.266;2023-03-14T05:11:14;1.15;;;0.30;;
77359;SDS011;66426;51.454;7.266;2023-03-14T05:12:14;0.20;;;0.20;;
77359;SDS011;66426;51.454;7.266;2023-03-14T05:13:15;0.95;;;0.40;;
77359;SDS011;66426;51.454;7.266;2023-03-14T05:14:16;3.00;;;0.25;;
77359;SDS011;66426;51.454;7.266;2023-03-14T05:15:18;0.15;;;0.15;;
77359;SDS011;66426;51.454;7.266;2023-03-14T05:16:19;0.38;;;0.22;;
77359;SDS011;66426;51.454;7.266;2023-03-14T05:17:19;0.35;;;0.20;;
77359;SDS011;66426;51.454;7.266;2023-03-14T05:18:20;0.00;;;0.00;;
77359;SDS011;66426;51.454;7.266;2023-03-14T05:19:21;0.75;;;0.10;;
77359;SDS011;66426;51.454;7.266;2023-03-14T05:20:21;0.38;;;0.28;;
77359;SDS011;66426;51.454;7.266;2023-03-14T05:21:22;0.98;;;0.35;;
77359;SDS011;66426;51.454;7.266;2023-03-14T05:22:23;2.83;;;0.95;;
77359;SDS011;66426;51.454;7.266;2023-03-14T05:23:24;0.63;;;0.30;;
77359;SDS011;66426;51.454;7.266;2023-03-14T05:24:25;0.30;;;0.30;;
77359;SDS011;66426;51.454;7.266;2023-03-14T05:25:25;0.10;;;0.10;;
77359;SDS011;66426;51.454;7.266;2023-03-14T05:26:26;0.93;;;0.05;;
77359;SDS011;66426;51.454;7.266;2023-03-14T05:27:27;0.80;;;0.25;;
77359;SDS011;66426;51.454;7.266;2023-03-14T05:28:27;0.45;;;0.38;;
77359;SDS011;66426;51.454;7.266;2023-03-14T05:29:28;0.38;;;0.32;;
77359;SDS011;66426;51.454;7.266;2023-03-14T05:30:30;0.60;;;0.20;;
77359;SDS011;66426;51.454;7.266;2023-03-14T05:31:32;0.65;;;0.40;;
77359;SDS011;66426;51.454;7.266;2023-03-14T05:32:33;1.27;;;0.13;;
77359;SDS011;66426;51.454;7.266;2023-03-14T05:33:34;0.55;;;0.30;;
77359;SDS011;66426;51.454;7.266;2023-03-14T05:34:34;1.15;;;0.43;;
77359;SDS011;66426;51.454;7.266;2023-03-14T05:35:35;0.52;;;0.52;;
77359;SDS011;66426;51.454;7.266;2023-03-14T05:36:36;0.38;;;0.20;;
77359;SDS011;66426;51.454;7.266;2023-03-14T05:37:36;0.80;;;0.43;;
77359;SDS011;66426;51.454;7.266;2023-03-14T05:38:38;0.80;;;0.35;;
77359;SDS011;66426;51.454;7.266;2023-03-14T05:39:38;0.40;;;0.20;;
77359;SDS011;66426;51.454;7.266;2023-03-14T05:40:39;0.38;;;0.38;;
77359;SDS011;66426;51.454;7.266;2023-03-14T05:41:40;2.67;;;0.35;;
77359;SDS011;66426;51.454;7.266;2023-03-14T05:42:41;0.60;;;0.22;;
77359;SDS011;66426;51.454;7.266;2023-03-14T05:43:41;1.85;;;0.55;;
77359;SDS011;66426;51.454;7.266;2023-03-14T05:44:42;0.40;;;0.40;;
77359;SDS011;66426;51.454;7.266;2023-03-14T05:45:44;0.30;;;0.22;;
77359;SDS011;66426;51.454;7.266;2023-03-14T05:46:45;0.93;;;0.30;;
77359;SDS011;66426;51.454;7.266;2023-03-14T05:47:45;1.02;;;0.55;;
77359;SDS011;66426;51.454;7.266;2023-03-14T05:48:46;1.00;;;0.38;;
77359;SDS011;66426;51.454;7.266;2023-03-14T05:49:47;0.30;;;0.30;;
77359;SDS011;66426;51.454;7.266;2023-03-14T05:50:53;0.60;;;0.60;;
77359;SDS011;66426;51.454;7.266;2023-03-14T05:51:54;3.40;;;1.42;;
77359;SDS011;66426;51.454;7.266;2023-03-14T05:52:55;0.60;;;0.60;;
77359;SDS011;66426;51.454;7.266;2023-03-14T05:53:56;1.05;;;0.90;;
77359;SDS011;66426;51.454;7.266;2023-03-14T05:54:56;4.57;;;1.10;;
77359;SDS011;66426;51.454;7.266;2023-03-14T05:55:57;1.42;;;0.80;;
77359;SDS011;66426;51.454;7.266;2023-03-14T05:56:58;1.05;;;0.90;;
77359;SDS011;66426;51.454;7.266;2023-03-14T05:57:59;0.88;;;0.88;;
77359;SDS011;66426;51.454;7.266;2023-03-14T05:58:59;3.30;;;1.30;;
77359;SDS011;66426;51.454;7.266;2023-03-14T06:00:02;1.20;;;1.10;;
77359;SDS011;66426;51.454;7.266;2023-03-14T06:01:05;3.45;;;1.17;;
77359;SDS011;66426;51.454;7.266;2023-03-14T06:02:06;4.47;;;1.50;;
77359;SDS011;66426;51.454;7.266;2023-03-14T06:03:07;1.88;;;1.25;;
77359;SDS011;66426;51.454;7.266;2023-03-14T06:04:08;4.60;;;1.50;;
77359;SDS011;66426;51.454;7.266;2023-03-14T06:05:08;2.63;;;1.30;;
77359;SDS011;66426;51.454;7.266;2023-03-14T06:06:09;2.72;;;1.10;;
77359;SDS011;66426;51.454;7.266;2023-03-14T06:07:10;2.58;;;1.40;;
77359;SDS011;66426;51.454;7.266;2023-03-14T06:08:10;2.28;;;1.20;;
77359;SDS011;66426;51.454;7.266;2023-03-14T06:09:11;3.65;;;1.30;;
77359;SDS011;66426;51.454;7.266;2023-03-14T06:10:12;2.90;;;1.30;;